Cyril, Oklahoma
Current Conditions -  °F | °C
As of 9:15 PM on Monday 26 Jan 2015 (Local Time) from KCHK Reporting Station
Clear Clear  
Wind Chill: 52°   Ceiling: Unl
Heat Index: 52°   Visibility: 10mi
Dew Point: 36°   Wind: 5mph
Humidity: 54%   Direction: 260°W
Pressure: 30.08"   Gusts: NA
Location:  34.9°N, 98.2°W
Report Text: KCHK 270315Z AUTO 26004KT 10SM CLR 11/02 A3008 RMK AO2
Loading
Personal Weather Stations






























Interactive Weather Map New forecast layout! Learn more

10-Day Weather Forecast

Advertisements
Track Severe Weather on mobile